sensor_id;sensor_type;location;lat;lon;timestamp;pressure;altitude;pressure_sealevel;temperature;humidity
31121;BME280;17770;45.966;13.632;2023-04-28T00:01:48;100924.00;;;20.05;50.56
31121;BME280;17770;45.966;13.632;2023-04-28T00:04:14;100931.13;;;20.03;50.27
31121;BME280;17770;45.966;13.632;2023-04-28T00:06:39;100920.75;;;20.01;50.48
31121;BME280;17770;45.966;13.632;2023-04-28T00:09:06;100926.91;;;20.00;50.46
31121;BME280;17770;45.966;13.632;2023-04-28T00:11:38;100917.38;;;19.99;50.33
31121;BME280;17770;45.966;13.632;2023-04-28T00:14:04;100920.09;;;19.98;50.48
31121;BME280;17770;45.966;13.632;2023-04-28T00:16:30;100911.47;;;19.96;50.55
31121;BME280;17770;45.966;13.632;2023-04-28T00:18:56;100911.47;;;19.96;50.71
31121;BME280;17770;45.966;13.632;2023-04-28T00:21:22;100917.66;;;19.95;50.61
31121;BME280;17770;45.966;13.632;2023-04-28T00:23:48;100917.72;;;19.93;50.34
31121;BME280;17770;45.966;13.632;2023-04-28T00:26:13;100916.03;;;19.92;50.61
31121;BME280;17770;45.966;13.632;2023-04-28T00:28:42;100915.19;;;19.92;50.41
31121;BME280;17770;45.966;13.632;2023-04-28T00:31:11;100919.59;;;19.91;50.32
31121;BME280;17770;45.966;13.632;2023-04-28T00:33:38;100918.00;;;19.89;50.31
31121;BME280;17770;45.966;13.632;2023-04-28T00:36:04;100909.31;;;19.88;50.59
31121;BME280;17770;45.966;13.632;2023-04-28T00:38:30;100909.31;;;19.88;50.60
31121;BME280;17770;45.966;13.632;2023-04-28T00:40:56;100910.22;;;19.87;50.36
31121;BME280;17770;45.966;13.632;2023-04-28T00:43:22;100906.75;;;19.87;50.39
31121;BME280;17770;45.966;13.632;2023-04-28T00:45:48;100906.84;;;19.85;50.59
31121;BME280;17770;45.966;13.632;2023-04-28T00:48:15;100906.84;;;19.85;50.34
31121;BME280;17770;45.966;13.632;2023-04-28T00:50:41;100911.38;;;19.83;50.53
31121;BME280;17770;45.966;13.632;2023-04-28T00:53:09;100908.81;;;19.82;50.21
31121;BME280;17770;45.966;13.632;2023-04-28T00:55:35;100908.81;;;19.82;50.47
31121;BME280;17770;45.966;13.632;2023-04-28T00:58:02;100915.00;;;19.81;50.38
31121;BME280;17770;45.966;13.632;2023-04-28T01:00:28;100909.00;;;19.79;50.38
31121;BME280;17770;45.966;13.632;2023-04-28T01:02:54;100901.13;;;19.79;50.62
31121;BME280;17770;45.966;13.632;2023-04-28T01:05:22;100906.47;;;19.77;50.40
31121;BME280;17770;45.966;13.632;2023-04-28T01:07:48;100903.94;;;19.76;50.65
31121;BME280;17770;45.966;13.632;2023-04-28T01:10:14;100898.72;;;19.76;50.40
31121;BME280;17770;45.966;13.632;2023-04-28T01:12:40;100896.19;;;19.74;50.38
31121;BME280;17770;45.966;13.632;2023-04-28T01:15:06;100890.09;;;19.74;50.34
31121;BME280;17770;45.966;13.632;2023-04-28T01:17:35;100909.28;;;19.74;50.15
31121;BME280;17770;45.966;13.632;2023-04-28T01:20:01;100905.91;;;19.72;50.23
31121;BME280;17770;45.966;13.632;2023-04-28T01:22:27;100911.97;;;19.73;50.69
31121;BME280;17770;45.966;13.632;2023-04-28T01:24:53;100912.16;;;19.70;50.36
31121;BME280;17770;45.966;13.632;2023-04-28T01:27:19;100903.56;;;19.68;50.54
31121;BME280;17770;45.966;13.632;2023-04-28T01:29:45;100909.63;;;19.68;50.61
31121;BME280;17770;45.966;13.632;2023-04-28T01:32:11;100902.78;;;19.66;50.48
31121;BME280;17770;45.966;13.632;2023-04-28T01:34:38;100906.25;;;19.66;50.64
31121;BME280;17770;45.966;13.632;2023-04-28T01:37:05;100903.75;;;19.65;50.22
31121;BME280;17770;45.966;13.632;2023-04-28T01:39:31;100907.16;;;19.65;50.81
31121;BME280;17770;45.966;13.632;2023-04-28T01:41:57;100902.03;;;19.64;50.43
31121;BME280;17770;45.966;13.632;2023-04-28T01:44:24;100903.81;;;19.63;50.73
31121;BME280;17770;45.966;13.632;2023-04-28T01:46:50;100902.13;;;19.62;50.23
31121;BME280;17770;45.966;13.632;2023-04-28T01:49:16;100899.59;;;19.61;50.61
31121;BME280;17770;45.966;13.632;2023-04-28T01:51:41;100893.53;;;19.60;50.51
31121;BME280;17770;45.966;13.632;2023-04-28T01:54:07;100904.06;;;19.59;50.39
31121;BME280;17770;45.966;13.632;2023-04-28T01:56:33;100902.31;;;19.59;50.57
31121;BME280;17770;45.966;13.632;2023-04-28T01:58:59;100908.47;;;19.58;50.41
31121;BME280;17770;45.966;13.632;2023-04-28T02:01:25;100903.44;;;19.55;50.56
31121;BME280;17770;45.966;13.632;2023-04-28T02:03:51;100904.25;;;19.56;50.46
31121;BME280;17770;45.966;13.632;2023-04-28T02:06:19;100905.19;;;19.55;50.53
31121;BME280;17770;45.966;13.632;2023-04-28T02:08:45;100900.88;;;19.54;50.66
31121;BME280;17770;45.966;13.632;2023-04-28T02:11:11;100898.34;;;19.52;50.62
31121;BME280;17770;45.966;13.632;2023-04-28T02:13:37;100898.44;;;19.51;50.49
31121;BME280;17770;45.966;13.632;2023-04-28T02:16:03;100909.84;;;19.50;50.71
31121;BME280;17770;45.966;13.632;2023-04-28T02:18:29;100904.63;;;19.50;50.49
31121;BME280;17770;45.966;13.632;2023-04-28T02:21:07;100905.53;;;19.48;50.61
31121;BME280;17770;45.966;13.632;2023-04-28T02:23:32;100905.53;;;19.48;50.54
31121;BME280;17770;45.966;13.632;2023-04-28T02:26:01;100907.31;;;19.48;50.70
31121;BME280;17770;45.966;13.632;2023-04-28T02:28:28;100899.56;;;19.47;50.60
31121;BME280;17770;45.966;13.632;2023-04-28T02:31:07;100897.84;;;19.45;50.66
31121;BME280;17770;45.966;13.632;2023-04-28T02:33:34;100892.63;;;19.45;50.60
31121;BME280;17770;45.966;13.632;2023-04-28T02:36:00;100892.63;;;19.45;50.53
31121;BME280;17770;45.966;13.632;2023-04-28T02:38:26;100898.81;;;19.44;50.66
31121;BME280;17770;45.966;13.632;2023-04-28T02:40:56;100894.50;;;19.43;50.46
31121;BME280;17770;45.966;13.632;2023-04-28T02:43:23;100901.50;;;19.43;50.59
31121;BME280;17770;45.966;13.632;2023-04-28T02:45:49;100900.75;;;19.41;50.72
31121;BME280;17770;45.966;13.632;2023-04-28T02:48:15;100899.06;;;19.40;50.59
31121;BME280;17770;45.966;13.632;2023-04-28T02:50:41;100901.69;;;19.40;50.60
31121;BME280;17770;45.966;13.632;2023-04-28T02:53:07;100906.06;;;19.39;50.73
31121;BME280;17770;45.966;13.632;2023-04-28T02:55:33;100905.22;;;19.39;50.74
31121;BME280;17770;45.966;13.632;2023-04-28T02:57:59;100908.78;;;19.38;50.72
31121;BME280;17770;45.966;13.632;2023-04-28T03:00:25;100901.03;;;19.36;50.56
31121;BME280;17770;45.966;13.632;2023-04-28T03:02:51;100901.84;;;19.37;50.80
31121;BME280;17770;45.966;13.632;2023-04-28T03:05:16;100901.94;;;19.35;50.86
31121;BME280;17770;45.966;13.632;2023-04-28T03:07:42;100900.25;;;19.34;50.64
31121;BME280;17770;45.966;13.632;2023-04-28T03:10:08;100908.09;;;19.34;50.56
31121;BME280;17770;45.966;13.632;2023-04-28T03:12:35;100898.59;;;19.33;50.80
31121;BME280;17770;45.966;13.632;2023-04-28T03:15:01;100903.81;;;19.33;50.78
31121;BME280;17770;45.966;13.632;2023-04-28T03:17:26;100899.59;;;19.31;50.60
31121;BME280;17770;45.966;13.632;2023-04-28T03:19:52;100902.19;;;19.31;50.60
31121;BME280;17770;45.966;13.632;2023-04-28T03:22:18;100895.34;;;19.28;50.57
31121;BME280;17770;45.966;13.632;2023-04-28T03:24:45;100895.34;;;19.28;51.14
31121;BME280;17770;45.966;13.632;2023-04-28T03:27:11;100890.13;;;19.28;50.76
31121;BME280;17770;45.966;13.632;2023-04-28T03:29:37;100896.22;;;19.29;50.54
31121;BME280;17770;45.966;13.632;2023-04-28T03:32:03;100893.66;;;19.27;50.79
31121;BME280;17770;45.966;13.632;2023-04-28T03:34:29;100890.28;;;19.25;50.73
31121;BME280;17770;45.966;13.632;2023-04-28T03:36:55;100888.50;;;19.26;50.34
31121;BME280;17770;45.966;13.632;2023-04-28T03:39:26;100881.69;;;19.23;50.62
31121;BME280;17770;45.966;13.632;2023-04-28T03:41:52;100877.28;;;19.24;50.68
31121;BME280;17770;45.966;13.632;2023-04-28T03:44:44;100887.00;;;19.22;50.87
31121;BME280;17770;45.966;13.632;2023-04-28T03:47:11;100883.53;;;19.21;50.89
31121;BME280;17770;45.966;13.632;2023-04-28T03:49:37;100885.31;;;19.21;50.97
31121;BME280;17770;45.966;13.632;2023-04-28T03:52:03;100883.63;;;19.20;50.95
31121;BME280;17770;45.966;13.632;2023-04-28T03:54:29;100872.31;;;19.19;50.68
31121;BME280;17770;45.966;13.632;2023-04-28T03:56:57;100875.88;;;19.18;50.88
31121;BME280;17770;45.966;13.632;2023-04-28T03:59:24;100875.03;;;19.18;50.71
31121;BME280;17770;45.966;13.632;2023-04-28T04:01:49;100877.63;;;19.18;50.59
31121;BME280;17770;45.966;13.632;2023-04-28T04:04:16;100875.97;;;19.17;50.83
31121;BME280;17770;45.966;13.632;2023-04-28T04:06:42;100873.44;;;19.15;50.83
31121;BME280;17770;45.966;13.632;2023-04-28T04:09:08;100875.22;;;19.15;50.75
31121;BME280;17770;45.966;13.632;2023-04-28T04:11:34;100880.44;;;19.15;50.64
31121;BME280;17770;45.966;13.632;2023-04-28T04:14:00;100882.19;;;19.14;50.88
31121;BME280;17770;45.966;13.632;2023-04-28T04:16:26;100884.91;;;19.13;50.86
31121;BME280;17770;45.966;13.632;2023-04-28T04:18:55;100881.44;;;19.12;50.75
31121;BME280;17770;45.966;13.632;2023-04-28T04:21:37;100884.03;;;19.12;50.89
31121;BME280;17770;45.966;13.632;2023-04-28T04:24:03;100880.63;;;19.12;50.83
31121;BME280;17770;45.966;13.632;2023-04-28T04:26:29;100891.16;;;19.10;50.87
31121;BME280;17770;45.966;13.632;2023-04-28T04:28:55;100898.16;;;19.10;50.96
31121;BME280;17770;45.966;13.632;2023-04-28T04:31:21;100898.16;;;19.10;50.66
31121;BME280;17770;45.966;13.632;2023-04-28T04:33:47;100888.59;;;19.09;50.39
31121;BME280;17770;45.966;13.632;2023-04-28T04:36:14;100896.53;;;19.07;50.62
31121;BME280;17770;45.966;13.632;2023-04-28T04:38:40;100905.22;;;19.08;50.93
31121;BME280;17770;45.966;13.632;2023-04-28T04:41:14;100900.00;;;19.08;50.83
31121;BME280;17770;45.966;13.632;2023-04-28T04:43:40;100893.09;;;19.07;51.02
31121;BME280;17770;45.966;13.632;2023-04-28T04:46:06;100893.91;;;19.07;50.72
31121;BME280;17770;45.966;13.632;2023-04-28T04:48:32;100907.94;;;19.06;50.74
31121;BME280;17770;45.966;13.632;2023-04-28T04:50:59;100907.06;;;19.06;50.75
31121;BME280;17770;45.966;13.632;2023-04-28T04:53:25;100898.41;;;19.05;50.64
31121;BME280;17770;45.966;13.632;2023-04-28T04:55:52;100890.66;;;19.04;50.75
31121;BME280;17770;45.966;13.632;2023-04-28T04:58:19;100890.66;;;19.04;50.84
31121;BME280;17770;45.966;13.632;2023-04-28T05:01:14;100892.41;;;19.03;50.80
31121;BME280;17770;45.966;13.632;2023-04-28T05:03:41;100899.41;;;19.03;50.87
31121;BME280;17770;45.966;13.632;2023-04-28T05:06:06;100901.16;;;19.02;50.82
31121;BME280;17770;45.966;13.632;2023-04-28T05:08:40;100896.03;;;19.01;51.05
31121;BME280;17770;45.966;13.632;2023-04-28T05:11:06;100889.97;;;19.00;50.87
31121;BME280;17770;45.966;13.632;2023-04-28T05:13:32;100884.84;;;18.99;50.69
31121;BME280;17770;45.966;13.632;2023-04-28T05:16:00;100882.22;;;18.99;50.85
31121;BME280;17770;45.966;13.632;2023-04-28T05:18:38;100890.06;;;18.99;50.89
31121;BME280;17770;45.966;13.632;2023-04-28T05:21:04;100884.84;;;18.99;50.73
31121;BME280;17770;45.966;13.632;2023-04-28T05:23:32;100892.75;;;18.97;50.73
31121;BME280;17770;45.966;13.632;2023-04-28T05:25:58;100892.81;;;18.96;50.86
31121;BME280;17770;45.966;13.632;2023-04-28T05:28:24;100898.06;;;18.96;50.67
31121;BME280;17770;45.966;13.632;2023-04-28T05:30:53;100886.78;;;18.95;50.84
31121;BME280;17770;45.966;13.632;2023-04-28T05:33:19;100888.53;;;18.95;50.89
31121;BME280;17770;45.966;13.632;2023-04-28T05:35:46;100899.00;;;18.95;50.83
31121;BME280;17770;45.966;13.632;2023-04-28T05:38:13;100905.16;;;18.94;50.79
31121;BME280;17770;45.966;13.632;2023-04-28T05:40:41;100913.00;;;18.94;50.78
31121;BME280;17770;45.966;13.632;2023-04-28T05:43:07;100919.16;;;18.93;50.66
31121;BME280;17770;45.966;13.632;2023-04-28T05:45:33;100917.38;;;18.93;50.68
31121;BME280;17770;45.966;13.632;2023-04-28T05:47:59;100916.63;;;18.91;50.68
31121;BME280;17770;45.966;13.632;2023-04-28T05:50:26;100917.47;;;18.92;51.04
31121;BME280;17770;45.966;13.632;2023-04-28T05:52:52;100917.47;;;18.92;50.73
31121;BME280;17770;45.966;13.632;2023-04-28T05:55:18;100920.09;;;18.92;50.90
31121;BME280;17770;45.966;13.632;2023-04-28T05:57:44;100917.47;;;18.92;50.82
31121;BME280;17770;45.966;13.632;2023-04-28T06:00:10;100924.47;;;18.91;50.90
31121;BME280;17770;45.966;13.632;2023-04-28T06:02:39;100931.44;;;18.91;50.86
31121;BME280;17770;45.966;13.632;2023-04-28T06:05:05;100928.84;;;18.91;50.87
31121;BME280;17770;45.966;13.632;2023-04-28T06:07:32;100934.06;;;18.91;50.77
31121;BME280;17770;45.966;13.632;2023-04-28T06:09:57;100929.69;;;18.91;50.84
31121;BME280;17770;45.966;13.632;2023-04-28T06:12:23;100933.25;;;18.90;50.74
31121;BME280;17770;45.966;13.632;2023-04-28T06:14:50;100924.53;;;18.90;50.90
31121;BME280;17770;45.966;13.632;2023-04-28T06:17:20;100928.00;;;18.90;50.72
31121;BME280;17770;45.966;13.632;2023-04-28T06:19:46;100928.91;;;18.89;50.82
31121;BME280;17770;45.966;13.632;2023-04-28T06:22:16;100929.88;;;18.88;51.00
31121;BME280;17770;45.966;13.632;2023-04-28T06:24:42;100923.78;;;18.88;50.94
31121;BME280;17770;45.966;13.632;2023-04-28T06:27:11;100922.03;;;18.88;50.74
31121;BME280;17770;45.966;13.632;2023-04-28T06:29:37;100924.63;;;18.88;51.08
31121;BME280;17770;45.966;13.632;2023-04-28T06:32:03;100919.41;;;18.88;51.01
31121;BME280;17770;45.966;13.632;2023-04-28T06:34:29;100920.25;;;18.89;50.93
31121;BME280;17770;45.966;13.632;2023-04-28T06:36:57;100922.03;;;18.88;50.88
31121;BME280;17770;45.966;13.632;2023-04-28T06:39:25;100929.00;;;18.88;51.34
31121;BME280;17770;45.966;13.632;2023-04-28T06:41:51;100927.25;;;18.88;51.24
31121;BME280;17770;45.966;13.632;2023-04-28T06:44:17;100931.53;;;18.89;51.39
31121;BME280;17770;45.966;13.632;2023-04-28T06:46:43;100935.00;;;18.90;51.24
31121;BME280;17770;45.966;13.632;2023-04-28T06:49:09;100930.63;;;18.90;51.38
31121;BME280;17770;45.966;13.632;2023-04-28T06:51:35;100927.06;;;18.91;51.51
31121;BME280;17770;45.966;13.632;2023-04-28T06:54:01;100933.16;;;18.92;51.24
31121;BME280;17770;45.966;13.632;2023-04-28T06:56:27;100920.94;;;18.92;51.29
31121;BME280;17770;45.966;13.632;2023-04-28T06:58:55;100916.53;;;18.93;51.44
31121;BME280;17770;45.966;13.632;2023-04-28T07:01:24;100920.00;;;18.93;51.04
31121;BME280;17770;45.966;13.632;2023-04-28T07:03:50;100916.53;;;18.93;51.25
31121;BME280;17770;45.966;13.632;2023-04-28T07:06:15;100924.38;;;18.93;51.03
31121;BME280;17770;45.966;13.632;2023-04-28T07:08:42;100928.00;;;18.90;51.27
31121;BME280;17770;45.966;13.632;2023-04-28T07:11:08;100927.16;;;18.90;51.11
31121;BME280;17770;45.966;13.632;2023-04-28T07:13:34;100928.91;;;18.89;51.02
31121;BME280;17770;45.966;13.632;2023-04-28T07:16:00;100936.75;;;18.89;51.25
31121;BME280;17770;45.966;13.632;2023-04-28T07:18:26;100929.00;;;18.88;51.35
31121;BME280;17770;45.966;13.632;2023-04-28T07:20:52;100927.25;;;18.88;51.86
31121;BME280;17770;45.966;13.632;2023-04-28T07:23:17;100921.00;;;18.91;51.85
31121;BME280;17770;45.966;13.632;2023-04-28T07:25:43;100914.84;;;18.92;51.94
31121;BME280;17770;45.966;13.632;2023-04-28T07:28:09;100913.91;;;18.93;51.53
31121;BME280;17770;45.966;13.632;2023-04-28T07:30:36;100907.88;;;18.92;51.46
31121;BME280;17770;45.966;13.632;2023-04-28T07:33:01;100912.25;;;18.92;51.47
31121;BME280;17770;45.966;13.632;2023-04-28T07:35:27;100907.91;;;18.91;51.86
31121;BME280;17770;45.966;13.632;2023-04-28T07:37:53;100919.22;;;18.91;51.53
31121;BME280;17770;45.966;13.632;2023-04-28T07:40:20;100916.69;;;18.90;51.65
31121;BME280;17770;45.966;13.632;2023-04-28T07:42:46;100922.78;;;18.90;52.26
31121;BME280;17770;45.966;13.632;2023-04-28T07:45:12;100928.69;;;18.94;52.23
31121;BME280;17770;45.966;13.632;2023-04-28T07:47:39;100938.97;;;18.97;51.92
31121;BME280;17770;45.966;13.632;2023-04-28T07:50:05;100933.66;;;18.98;51.86
31121;BME280;17770;45.966;13.632;2023-04-28T07:52:31;100945.78;;;18.99;51.85
31121;BME280;17770;45.966;13.632;2023-04-28T07:54:57;100952.81;;;18.99;51.55
31121;BME280;17770;45.966;13.632;2023-04-28T07:57:23;100951.97;;;18.98;51.54
31121;BME280;17770;45.966;13.632;2023-04-28T07:59:49;100967.56;;;19.00;51.54
31121;BME280;17770;45.966;13.632;2023-04-28T08:02:15;100963.28;;;18.99;51.22
31121;BME280;17770;45.966;13.632;2023-04-28T08:04:41;100965.88;;;18.99;51.64
31121;BME280;17770;45.966;13.632;2023-04-28T08:07:07;100965.13;;;18.97;51.40
31121;BME280;17770;45.966;13.632;2023-04-28T08:09:33;100965.88;;;18.99;51.41
31121;BME280;17770;45.966;13.632;2023-04-28T08:12:00;100970.25;;;18.98;51.42
31121;BME280;17770;45.966;13.632;2023-04-28T08:14:26;100974.63;;;18.98;51.03
31121;BME280;17770;45.966;13.632;2023-04-28T08:16:52;100964.19;;;18.98;51.24
31121;BME280;17770;45.966;13.632;2023-04-28T08:19:18;100973.78;;;18.97;51.18
31121;BME280;17770;45.966;13.632;2023-04-28T08:21:44;100968.56;;;18.97;51.26
31121;BME280;17770;45.966;13.632;2023-04-28T08:24:10;100964.09;;;18.99;50.91
31121;BME280;17770;45.966;13.632;2023-04-28T08:26:36;100964.09;;;18.99;51.13
31121;BME280;17770;45.966;13.632;2023-04-28T08:29:02;100962.41;;;18.98;50.87
31121;BME280;17770;45.966;13.632;2023-04-28T08:31:28;100971.13;;;18.99;51.10
31121;BME280;17770;45.966;13.632;2023-04-28T08:33:54;100971.84;;;19.01;51.04
31121;BME280;17770;45.966;13.632;2023-04-28T08:36:20;100971.13;;;18.99;50.54
31121;BME280;17770;45.966;13.632;2023-04-28T08:38:46;100970.25;;;18.98;50.98
31121;BME280;17770;45.966;13.632;2023-04-28T08:41:12;100962.41;;;18.98;51.00
31121;BME280;17770;45.966;13.632;2023-04-28T08:43:39;100967.66;;;18.98;50.91
31121;BME280;17770;45.966;13.632;2023-04-28T08:46:08;100966.78;;;18.98;51.14
31121;BME280;17770;45.966;13.632;2023-04-28T08:48:40;100971.94;;;18.99;51.03
31121;BME280;17770;45.966;13.632;2023-04-28T08:51:07;100967.56;;;19.00;50.81
31121;BME280;17770;45.966;13.632;2023-04-28T08:53:37;100968.41;;;19.00;50.85
31121;BME280;17770;45.966;13.632;2023-04-28T08:56:07;100970.09;;;19.01;50.93
31121;BME280;17770;45.966;13.632;2023-04-28T08:58:34;100975.41;;;19.00;51.03
31121;BME280;17770;45.966;13.632;2023-04-28T09:01:01;100971.94;;;18.99;51.07
31121;BME280;17770;45.966;13.632;2023-04-28T09:03:29;100969.22;;;19.01;50.98
31121;BME280;17770;45.966;13.632;2023-04-28T09:05:56;100970.16;;;19.00;50.89
31121;BME280;17770;45.966;13.632;2023-04-28T09:08:22;100974.38;;;19.02;50.99
31121;BME280;17770;45.966;13.632;2023-04-28T09:10:59;100966.53;;;19.02;50.90
31121;BME280;17770;45.966;13.632;2023-04-28T09:13:30;100966.53;;;19.02;50.98
31121;BME280;17770;45.966;13.632;2023-04-28T09:16:00;100963.88;;;19.04;50.62
31121;BME280;17770;45.966;13.632;2023-04-28T09:18:28;100964.78;;;19.03;51.00
31121;BME280;17770;45.966;13.632;2023-04-28T09:21:01;100958.69;;;19.02;50.81
31121;BME280;17770;45.966;13.632;2023-04-28T09:23:27;100962.16;;;19.03;50.82
31121;BME280;17770;45.966;13.632;2023-04-28T09:26:06;100966.53;;;19.02;51.09
31121;BME280;17770;45.966;13.632;2023-04-28T09:28:35;100963.91;;;19.02;50.88
31121;BME280;17770;45.966;13.632;2023-04-28T09:31:01;100963.00;;;19.03;50.93
31121;BME280;17770;45.966;13.632;2023-04-28T09:33:27;100969.91;;;19.04;50.96
31121;BME280;17770;45.966;13.632;2023-04-28T09:35:53;100967.38;;;19.03;51.16
31121;BME280;17770;45.966;13.632;2023-04-28T09:38:20;100966.47;;;19.04;51.05
31121;BME280;17770;45.966;13.632;2023-04-28T09:43:31;100979.59;;;19.02;51.17
31121;BME280;17770;45.966;13.632;2023-04-28T09:45:58;100974.38;;;19.02;51.20
31121;BME280;17770;45.966;13.632;2023-04-28T09:50:53;100973.47;;;19.03;51.31
31121;BME280;17770;45.966;13.632;2023-04-28T09:53:21;100966.53;;;19.02;51.24
31121;BME280;17770;45.966;13.632;2023-04-28T09:55:47;100970.00;;;19.03;51.39
31121;BME280;17770;45.966;13.632;2023-04-28T09:58:15;100968.25;;;19.03;51.46
31121;BME280;17770;45.966;13.632;2023-04-28T10:00:41;100966.53;;;19.02;51.65
31121;BME280;17770;45.966;13.632;2023-04-28T10:03:07;100964.84;;;19.01;51.46
31121;BME280;17770;45.966;13.632;2023-04-28T10:05:34;100963.19;;;19.00;51.42
31121;BME280;17770;45.966;13.632;2023-04-28T10:08:01;100949.16;;;19.01;51.42
31121;BME280;17770;45.966;13.632;2023-04-28T10:10:28;100951.78;;;19.01;51.48
31121;BME280;17770;45.966;13.632;2023-04-28T10:12:54;100942.19;;;19.02;51.66
31121;BME280;17770;45.966;13.632;2023-04-28T10:15:21;100936.94;;;19.02;51.43
31121;BME280;17770;45.966;13.632;2023-04-28T10:17:48;100937.78;;;19.02;51.52
31121;BME280;17770;45.966;13.632;2023-04-28T10:20:15;100936.94;;;19.02;51.86
31121;BME280;17770;45.966;13.632;2023-04-28T10:30:12;100928.34;;;19.00;51.94
31121;BME280;17770;45.966;13.632;2023-04-28T10:32:38;100933.47;;;19.01;51.67
31121;BME280;17770;45.966;13.632;2023-04-28T10:38:01;100911.63;;;19.02;51.72
31121;BME280;17770;45.966;13.632;2023-04-28T10:42:57;100925.66;;;19.01;51.78
31121;BME280;17770;45.966;13.632;2023-04-28T10:53:59;100910.81;;;19.02;51.76
31121;BME280;17770;45.966;13.632;2023-04-28T10:56:09;100913.34;;;19.03;51.70
31121;BME280;17770;45.966;13.632;2023-04-28T10:58:35;100910.72;;;19.03;51.93
31121;BME280;17770;45.966;13.632;2023-04-28T11:06:17;100907.16;;;19.04;52.10
31121;BME280;17770;45.966;13.632;2023-04-28T11:08:44;100909.78;;;19.04;51.95
31121;BME280;17770;45.966;13.632;2023-04-28T11:13:35;100911.31;;;19.08;52.09
31121;BME280;17770;45.966;13.632;2023-04-28T11:16:02;100913.94;;;19.08;51.89
31121;BME280;17770;45.966;13.632;2023-04-28T11:18:28;100917.38;;;19.09;51.87
31121;BME280;17770;45.966;13.632;2023-04-28T11:20:56;100915.59;;;19.09;51.92
31121;BME280;17770;45.966;13.632;2023-04-28T11:23:23;100914.69;;;19.10;51.89
31121;BME280;17770;45.966;13.632;2023-04-28T11:25:53;100911.13;;;19.11;52.19
31121;BME280;17770;45.966;13.632;2023-04-28T11:28:18;100892.84;;;19.11;52.06
31121;BME280;17770;45.966;13.632;2023-04-28T11:30:45;100897.97;;;19.13;52.14
31121;BME280;17770;45.966;13.632;2023-04-28T11:33:11;100896.22;;;19.13;51.99
31121;BME280;17770;45.966;13.632;2023-04-28T11:35:40;100886.56;;;19.14;51.84
31121;BME280;17770;45.966;13.632;2023-04-28T11:38:07;100886.56;;;19.14;52.20
31121;BME280;17770;45.966;13.632;2023-04-28T11:40:32;100881.28;;;19.15;52.16
31121;BME280;17770;45.966;13.632;2023-04-28T11:42:58;100880.34;;;19.16;52.18
31121;BME280;17770;45.966;13.632;2023-04-28T11:45:24;100867.28;;;19.16;52.09
31121;BME280;17770;45.966;13.632;2023-04-28T11:47:50;100861.19;;;19.16;52.34
31121;BME280;17770;45.966;13.632;2023-04-28T11:50:16;100865.59;;;19.15;52.30
31121;BME280;17770;45.966;13.632;2023-04-28T11:52:51;100861.09;;;19.17;52.31
31121;BME280;17770;45.966;13.632;2023-04-28T11:55:16;100860.19;;;19.18;52.28
31121;BME280;17770;45.966;13.632;2023-04-28T11:57:42;100862.81;;;19.18;52.43
31121;BME280;17770;45.966;13.632;2023-04-28T12:00:14;100853.16;;;19.19;52.30
31121;BME280;17770;45.966;13.632;2023-04-28T12:02:46;100852.25;;;19.20;52.11
31121;BME280;17770;45.966;13.632;2023-04-28T12:05:12;100845.25;;;19.20;52.45
31121;BME280;17770;45.966;13.632;2023-04-28T12:07:41;100839.09;;;19.21;52.41
31121;BME280;17770;45.966;13.632;2023-04-28T12:10:09;100840.75;;;19.22;52.66
31121;BME280;17770;45.966;13.632;2023-04-28T12:12:35;100824.16;;;19.23;52.47
31121;BME280;17770;45.966;13.632;2023-04-28T12:15:04;100836.38;;;19.23;52.58
31121;BME280;17770;45.966;13.632;2023-04-28T12:20:00;100832.81;;;19.24;52.89
31121;BME280;17770;45.966;13.632;2023-04-28T12:22:26;100832.00;;;19.23;52.69
31121;BME280;17770;45.966;13.632;2023-04-28T12:25:09;100840.66;;;19.24;52.67
31121;BME280;17770;45.966;13.632;2023-04-28T12:27:36;100830.22;;;19.24;53.16
31121;BME280;17770;45.966;13.632;2023-04-28T12:32:45;100835.34;;;19.25;52.98
31121;BME280;17770;45.966;13.632;2023-04-28T12:35:11;100831.81;;;19.26;52.93
31121;BME280;17770;45.966;13.632;2023-04-28T12:37:37;100831.81;;;19.26;53.12
31121;BME280;17770;45.966;13.632;2023-04-28T12:40:05;100837.06;;;19.26;53.37
31121;BME280;17770;45.966;13.632;2023-04-28T12:42:31;100850.03;;;19.28;52.82
31121;BME280;17770;45.966;13.632;2023-04-28T12:44:56;100850.88;;;19.28;52.79
31121;BME280;17770;45.966;13.632;2023-04-28T12:47:23;100840.44;;;19.28;53.43
31121;BME280;17770;45.966;13.632;2023-04-28T12:49:49;100832.59;;;19.28;52.79
31121;BME280;17770;45.966;13.632;2023-04-28T12:52:18;100834.28;;;19.29;53.21
31121;BME280;17770;45.966;13.632;2023-04-28T12:54:43;100813.38;;;19.29;53.54
31121;BME280;17770;45.966;13.632;2023-04-28T12:57:11;100818.59;;;19.29;53.38
31121;BME280;17770;45.966;13.632;2023-04-28T12:59:38;100802.91;;;19.29;53.57
31121;BME280;17770;45.966;13.632;2023-04-28T13:02:04;100795.91;;;19.30;53.06
31121;BME280;17770;45.966;13.632;2023-04-28T13:04:30;100791.50;;;19.30;53.08
31121;BME280;17770;45.966;13.632;2023-04-28T13:06:56;100789.72;;;19.31;52.98
31121;BME280;17770;45.966;13.632;2023-04-28T13:09:23;100779.28;;;19.31;52.97
31121;BME280;17770;45.966;13.632;2023-04-28T13:11:49;100773.19;;;19.30;53.08
31121;BME280;17770;45.966;13.632;2023-04-28T13:14:16;100779.19;;;19.32;53.13
31121;BME280;17770;45.966;13.632;2023-04-28T13:16:41;100771.25;;;19.34;53.40
31121;BME280;17770;45.966;13.632;2023-04-28T13:19:07;100770.41;;;19.33;53.09